Flight Track Log - Related Links

Times and Time Zones

All times are in EDT time to prevent confusion due to time zone crossing. See the UAL256 flight status page for this flight to view local times or setup timezone preferences in your user account.

Time Position Orientation Groundspeed Altitude Reporting Facility
EDT Latitude Longitude Course Direction KTS MPH feet Rate Location/Type
Tue 06:19:07 PM 32.7436 -117.2353 16° North 167 192 1,700  Level Los Angeles Center
Tue 06:20:09 PM 32.7539 -117.3044 280° West 206 237 3,400 2,468 Climbing Los Angeles Center
Tue 06:21:00 PM 32.6177 -116.7663 18° North  Level FlightAware Approximate
Tue 06:21:11 PM 32.6778 -117.2856 168° South 256 295 6,800  Level Los Angeles Center
Tue 06:22:00 PM 32.7325 -116.7233 18° North  Level FlightAware Approximate
Tue 06:22:13 PM 32.6442 -117.2058 117° Southeast 288 331 9,400  Level Los Angeles Center
Tue 06:23:00 PM 32.8474 -116.6811 19° North  Level FlightAware Approximate
Tue 06:24:00 PM 32.9627 -116.6402 16° North  Level FlightAware Approximate
Tue 06:24:17 PM 32.6114 -116.9861 100° East 349 402 13,200  Level Los Angeles Center
Tue 06:25:19 PM 32.6217 -116.8631 84° East 372 428 15,300 2,226 Climbing Los Angeles Center
Tue 06:26:21 PM 32.6806 -116.7392 61° Northeast 390 449 17,800 2,129 Climbing Los Angeles Center
Tue 06:27:23 PM 32.7892 -116.7142 11° North 395 455 19,700 1,680 Climbing Los Angeles Center
Tue 06:28:26 PM 32.8817 -116.6394 34° Northeast 403 464 21,300 1,548 Climbing Los Angeles Center
Tue 06:29:27 PM 32.9381 -116.5492 53° Northeast 414 476 22,900 1,597 Climbing Los Angeles Center
Tue 06:30:30 PM 33.0214 -116.4167 53° Northeast 424 488 24,600 1,344 Climbing Los Angeles Center
Tue 06:31:32 PM 33.1272 -116.3372 32° Northeast 442 509 25,700 1,210 Climbing Los Angeles Center
Tue 06:32:34 PM 33.2444 -116.2978 16° North 436 502 27,100 1,355 Climbing Los Angeles Center
Tue 06:33:36 PM 33.3611 -116.2550 17° North 439 505 28,500 1,161 Climbing Los Angeles Center
Tue 06:34:38 PM 33.4719 -116.1336 42° Northeast 454 522 29,500 1,065 Climbing Los Angeles Center
Tue 06:35:40 PM 33.5600 -116.0253 46° Northeast 453 521 30,700 1,161 Climbing Los Angeles Center
Tue 06:36:42 PM 33.6464 -115.9150 47° Northeast 455 524 31,900 1,065 Climbing Los Angeles Center
Tue 06:37:44 PM 33.7339 -115.8058 46° Northeast 454 522 32,900 1,065 Climbing Los Angeles Center
Tue 06:38:46 PM 33.8206 -115.6950 47° Northeast 454 522 34,100 960 Climbing Los Angeles Center
Tue 06:39:49 PM 33.9072 -115.5858 46° Northeast 451 519 34,900 384 Climbing Los Angeles Center
Tue 06:40:51 PM 34.0094 -115.4547 47° Northeast 448 516 34,900  Level Los Angeles Center
Tue 06:41:53 PM 34.0947 -115.3458 47° Northeast 449 517 34,900  Level Los Angeles Center
Tue 06:42:55 PM 34.1806 -115.2367 46° Northeast 449 517 34,900  Level Los Angeles Center
Tue 06:43:57 PM 34.2658 -115.1250 47° Northeast 451 519 34,900 48 Level Los Angeles Center
Tue 06:44:59 PM 34.3514 -115.0147 47° Northeast 451 519 35,000 48 Climbing Los Angeles Center
Tue 06:46:01 PM 34.4375 -114.9044 47° Northeast 451 519 35,000 -48 Level Los Angeles Center
Tue 06:47:03 PM 34.5236 -114.7925 47° Northeast 454 522 34,900 -48 Descending Los Angeles Center
Tue 06:48:05 PM 34.6261 -114.6578 47° Northeast 453 521 34,900 49 Level Los Angeles Center
Tue 06:49:06 PM 34.7056 -114.5522 48° Northeast 463 533 35,000 49 Climbing Los Angeles Center
Tue 06:50:08 PM 34.7933 -114.4417 46° Northeast 456 525 35,000  Level Los Angeles Center
Tue 06:51:10 PM 34.9078 -114.3203 41° Northeast 456 525 35,000  Level Los Angeles Center
Tue 06:52:12 PM 35.0006 -114.2139 43° Northeast 461 531 35,000  Level Los Angeles Center
Tue 06:53:14 PM 35.0578 -114.1097 56° Northeast 463 533 35,000  Level Los Angeles Center
Tue 06:54:16 PM 35.1478 -113.9553 54° Northeast 465 535 35,000 -48 Level Los Angeles Center
Tue 06:55:18 PM 35.2311 -113.8097 55° Northeast 466 536 34,900 -48 Descending Los Angeles Center
Tue 06:56:20 PM 35.3042 -113.6822 55° Northeast 460 529 34,900  Level Los Angeles Center
Tue 06:57:22 PM 35.3769 -113.5544 55° Northeast 459 528 34,900 48 Level Los Angeles Center
Tue 06:58:24 PM 35.4517 -113.4244 55° Northeast 465 535 35,000 48 Climbing Los Angeles Center
Tue 06:59:26 PM 35.5261 -113.2911 56° Northeast 470 541 35,000  Level Los Angeles Center
Tue 07:00:28 PM 35.6036 -113.1514 56° Northeast 468 539 35,000  Level Los Angeles Center
Tue 07:01:30 PM 35.6625 -113.0458 56° Northeast 469 540 35,000  Level Los Angeles Center
Tue 07:02:32 PM 35.7622 -112.8639 56° Northeast 473 544 35,000  Level Los Angeles Center
Tue 07:03:34 PM 35.8369 -112.7289 56° Northeast 476 548 35,000  Level Los Angeles Center
Tue 07:04:36 PM 35.9097 -112.5939 56° Northeast 476 548 35,000  Level Los Angeles Center
Tue 07:05:38 PM 35.9892 -112.4508 56° Northeast 472 543 35,000  Level Los Angeles Center
Tue 07:06:40 PM 36.0619 -112.3164 56° Northeast 473 544 35,000  Level Los Angeles Center
Tue 07:07:42 PM 36.1297 -112.1914 56° Northeast 474 545 35,000  Level Los Angeles Center
Tue 07:08:44 PM 36.2069 -112.0461 57° Northeast 473 544 35,000  Level Los Angeles Center
Tue 07:09:46 PM 36.2950 -111.8842 56° Northeast 475 547 35,000  Level Los Angeles Center
Tue 07:10:39 PM 36.3519 -111.7767 57° Northeast 476 548 35,000  Level Denver Center
Tue 07:11:41 PM 36.4244 -111.6411 56° Northeast 475 547 35,000  Level Denver Center
Tue 07:12:42 PM 36.4975 -111.5044 56° Northeast 476 548 35,000  Level Denver Center
Tue 07:13:44 PM 36.5708 -111.3653 57° Northeast 479 551 35,000  Level Denver Center
Tue 07:14:46 PM 36.6586 -111.1978 57° Northeast 482 555 35,000  Level Denver Center
Tue 07:15:48 PM 36.7325 -111.0567 57° Northeast 486 559 35,000  Level Denver Center
Tue 07:16:50 PM 36.8067 -110.9164 57° Northeast 486 559 35,000  Level Denver Center
Tue 07:17:52 PM 36.8794 -110.7750 57° Northeast 487 560 35,000  Level Denver Center
Tue 07:18:54 PM 36.9528 -110.6336 57° Northeast 487 560 35,000  Level Denver Center
Tue 07:20:07 PM 37.0256 -110.4911 57° Northeast 489 563 35,000  Level Denver Center
Tue 07:21:10 PM 37.1292 -110.2900 57° Northeast 492 566 35,000  Level Denver Center
Tue 07:22:12 PM 37.2000 -110.1500 58° Northeast 492 566 35,000  Level Denver Center
Tue 07:23:13 PM 37.2706 -110.0125 57° Northeast 489 563 35,000  Level Denver Center
Tue 07:24:27 PM 37.3533 -109.8500 57° Northeast 493 567 35,000  Level Denver Center
Tue 07:25:29 PM 37.4464 -109.6650 58° Northeast 489 563 35,000  Level Denver Center
Tue 07:26:31 PM 37.5050 -109.5472 58° Northeast 493 567 35,000  Level Denver Center
Tue 07:27:45 PM 37.6100 -109.3364 58° Northeast 492 566 35,000  Level Denver Center
Tue 07:28:47 PM 37.6800 -109.1944 58° Northeast 496 571 35,000  Level Denver Center
Tue 07:29:49 PM 37.7614 -109.0297 58° Northeast 494 568 35,000  Level Denver Center
Tue 07:30:51 PM 37.8314 -108.8875 58° Northeast 496 571 35,000  Level Denver Center
Tue 07:31:53 PM 37.9019 -108.7456 58° Northeast 497 572 35,000  Level Denver Center
Tue 07:32:54 PM 37.9833 -108.5772 58° Northeast 501 577 35,000  Level Denver Center
Tue 07:33:56 PM 38.0525 -108.4322 59° Northeast 501 577 35,000  Level Denver Center
Tue 07:34:58 PM 38.1272 -108.2750 59° Northeast 506 582 35,000  Level Denver Center
Tue 07:36:00 PM 38.2081 -108.1089 58° Northeast 498 573 35,000  Level Denver Center
Tue 07:37:02 PM 38.2761 -107.9650 59° Northeast 498 573 35,000 -49 Level Denver Center
Tue 07:38:03 PM 38.3567 -107.7961 59° Northeast 499 574 34,900 -49 Descending Denver Center
Tue 07:39:05 PM 38.4242 -107.6514 59° Northeast 499 574 34,900 48 Level Denver Center
Tue 07:40:07 PM 38.5044 -107.4792 59° Northeast 505 581 35,000 48 Climbing Denver Center
Tue 07:41:09 PM 38.5703 -107.3281 61° Northeast 507 583 35,000 -968 Level Denver Center
Tue 07:42:11 PM 38.6461 -107.1606 60° Northeast 509 586 33,000 -1,887 Descending Denver Center
Tue 07:43:13 PM 38.7153 -107.0050 60° Northeast 503 579 31,100 -1,790 Descending Denver Center
Tue 07:44:15 PM 38.7811 -106.8542 61° Northeast 489 563 29,300 -1,561 Descending Denver Center
Tue 07:45:16 PM 38.8461 -106.7094 60° Northeast 471 542 27,900 -1,122 Descending Denver Center
Tue 07:46:18 PM 38.9133 -106.5592 60° Northeast 468 539 27,000 -435 Descending Denver Center
Tue 07:47:20 PM 38.9864 -106.4003 59° Northeast 466 536 27,000  Level Denver Center
Tue 07:48:21 PM 39.0397 -106.2864 59° Northeast 466 536 27,000 -800 Level Denver Center
Tue 07:49:35 PM 39.1144 -106.1203 60° Northeast 461 531 25,200 -1,676 Descending Denver Center
Tue 07:50:37 PM 39.1867 -105.9561 60° Northeast 449 517 23,200 -1,887 Descending Denver Center
Tue 07:51:39 PM 39.2556 -105.7986 61° Northeast 430 495 21,300 -1,742 Descending Denver Center
Tue 07:52:41 PM 39.3133 -105.6689 60° Northeast 417 480 19,600 -1,645 Descending Denver Center
Tue 07:53:43 PM 39.3675 -105.5436 61° Northeast 401 461 17,900 -1,355 Descending Denver Center
Tue 07:54:45 PM 39.3989 -105.4061 74° East 375 432 16,800 -1,161 Descending Denver Center
Tue 07:55:47 PM 39.4050 -105.2817 86° East 354 407 15,500 -1,317 Descending Denver Center
Tue 07:56:48 PM 39.4108 -105.1486 87° East 349 402 14,100 -933 Descending Denver Center
Tue 07:58:02 PM 39.4150 -105.0322 87° East 329 379 13,400 -529 Descending Denver Center
Tue 07:59:04 PM 39.4542 -104.9133 67° East 291 335 12,900 -571 Descending Denver Center
Tue 08:00:08 PM 39.5036 -104.8244 54° Northeast 292 336 12,200 -870 Descending Denver Center
Tue 08:01:22 PM 39.5594 -104.7522 45° Northeast 287 330 10,900 -1,103 Descending Denver Center
Tue 08:02:24 PM 39.6350 -104.6911 32° Northeast 263 303 9,700 -1,161 Descending Denver Center

Login

Don't have an account? Register now (free) for customized features, flight alerts, and more!